Time;durP1;ratioP1;P1;durP2;ratioP2;P2;SDS_P1;SDS_P2;PMS_P1;PMS_P2;Temp;Humidity;BMP_temperature;BMP_pressure;BME280_temperature;BME280_humidity;BME280_pressure;Samples;Min_cycle;Max_cycle;Signal;HPM_P1;HPM_P2
2022/07/30 00:02:01;;;;;;;3.60;2.80;;;;;;;;;;5073170;28;20374;-83
2022/07/30 00:04:28;;;;;;;3.13;2.83;;;;;;;;;;5072944;28;20384;-83
2022/07/30 00:06:54;;;;;;;3.40;2.78;;;;;;;;;;5072073;28;20388;-84
2022/07/30 00:09:19;;;;;;;4.47;2.57;;;;;;;;;;5073107;28;20383;-83
2022/07/30 00:11:46;;;;;;;2.75;2.55;;;;;;;;;;5073023;28;20391;-84
2022/07/30 00:14:12;;;;;;;3.40;3.10;;;;;;;;;;5071621;28;20828;-84
2022/07/30 00:16:38;;;;;;;3.13;2.70;;;;;;;;;;5072949;28;20407;-83
2022/07/30 00:19:04;;;;;;;3.73;3.17;;;;;;;;;;5072886;28;20441;-84
2022/07/30 00:21:30;;;;;;;2.97;2.78;;;;;;;;;;5072958;28;20865;-84
2022/07/30 00:23:56;;;;;;;4.20;2.88;;;;;;;;;;5072794;28;20412;-84
2022/07/30 00:26:22;;;;;;;3.00;2.80;;;;;;;;;;5072717;28;20382;-84
2022/07/30 00:28:47;;;;;;;4.25;2.80;;;;;;;;;;5072530;28;20380;-84
2022/07/30 00:31:14;;;;;;;3.33;3.00;;;;;;;;;;5072684;28;20392;-83
2022/07/30 00:33:39;;;;;;;3.57;3.27;;;;;;;;;;5072546;28;20395;-83
2022/07/30 00:36:06;;;;;;;3.80;3.50;;;;;;;;;;5072454;28;20881;-84
2022/07/30 00:38:32;;;;;;;4.53;3.70;;;;;;;;;;5072572;28;20428;-84
2022/07/30 00:40:58;;;;;;;3.83;3.53;;;;;;;;;;5072368;28;20384;-84
2022/07/30 00:43:24;;;;;;;3.92;3.60;;;;;;;;;;5072299;28;20841;-84
2022/07/30 00:45:50;;;;;;;3.58;3.22;;;;;;;;;;5072527;28;20395;-84
2022/07/30 00:48:16;;;;;;;3.42;3.13;;;;;;;;;;5058381;28;20394;-83
2022/07/30 00:50:42;;;;;;;3.15;2.72;;;;;;;;;;5072567;28;20372;-83
2022/07/30 00:53:08;;;;;;;2.72;2.53;;;;;;;;;;5072441;28;20856;-83
2022/07/30 00:55:35;;;;;;;2.80;2.60;;;;;;;;;;5072323;28;20579;-84
2022/07/30 00:58:01;;;;;;;2.47;2.33;;;;;;;;;;5072372;28;20404;-83
2022/07/30 01:00:27;;;;;;;2.80;2.60;;;;;;;;;;5072546;28;20433;-83
2022/07/30 01:02:53;;;;;;;3.28;2.80;;;;;;;;;;5051286;28;20819;-84
2022/07/30 01:05:19;;;;;;;2.60;2.40;;;;;;;;;;5053071;28;20409;-84
2022/07/30 01:07:45;;;;;;;3.13;2.92;;;;;;;;;;5051779;28;20378;-84
2022/07/30 01:10:13;;;;;;;4.03;3.72;;;;;;;;;;5054027;28;20857;-84
2022/07/30 01:12:39;;;;;;;3.65;3.35;;;;;;;;;;5053792;28;20374;-82
2022/07/30 01:15:06;;;;;;;4.68;3.47;;;;;;;;;;5054528;28;20400;-82
2022/07/30 01:17:33;;;;;;;4.07;3.78;;;;;;;;;;5053903;28;20739;-82
2022/07/30 01:20:01;;;;;;;3.67;3.38;;;;;;;;;;5059945;28;20854;-82
2022/07/30 01:22:32;;;;;;;3.77;3.37;;;;;;;;;;5059448;28;20438;-82
2022/07/30 01:25:01;;;;;;;4.00;3.70;;;;;;;;;;5059248;28;20444;-82
2022/07/30 01:27:28;;;;;;;4.15;3.85;;;;;;;;;;5059732;28;20377;-83
2022/07/30 01:29:55;;;;;;;4.65;4.25;;;;;;;;;;5058899;28;20381;-83
2022/07/30 01:32:23;;;;;;;4.97;4.57;;;;;;;;;;5060543;28;20386;-83
2022/07/30 01:34:49;;;;;;;5.00;4.60;;;;;;;;;;5077049;28;20997;-83
2022/07/30 01:37:16;;;;;;;4.88;4.38;;;;;;;;;;5076348;28;20898;-82
2022/07/30 01:39:43;;;;;;;4.30;3.90;;;;;;;;;;5063354;28;20385;-83
2022/07/30 01:42:09;;;;;;;4.82;4.43;;;;;;;;;;5061879;28;20474;-82
2022/07/30 01:44:37;;;;;;;5.25;4.85;;;;;;;;;;5060806;28;20472;-83
2022/07/30 01:47:04;;;;;;;4.38;4.00;;;;;;;;;;5056577;28;20443;-83
2022/07/30 01:49:31;;;;;;;4.80;4.40;;;;;;;;;;5072153;28;20462;-82
2022/07/30 01:51:58;;;;;;;4.03;3.70;;;;;;;;;;5067340;28;20401;-82
2022/07/30 01:54:25;;;;;;;4.15;3.85;;;;;;;;;;5056731;28;20414;-83
2022/07/30 01:56:51;;;;;;;4.25;3.95;;;;;;;;;;5074970;28;20394;-83
2022/07/30 01:59:19;;;;;;;4.05;3.70;;;;;;;;;;5076623;28;20380;-83
2022/07/30 02:01:45;;;;;;;3.75;3.45;;;;;;;;;;5062808;28;20845;-82
2022/07/30 02:04:11;;;;;;;3.65;3.40;;;;;;;;;;5068810;28;20386;-83
2022/07/30 02:06:39;;;;;;;3.70;3.40;;;;;;;;;;5069481;28;20380;-82
2022/07/30 02:09:06;;;;;;;4.13;3.83;;;;;;;;;;5077577;28;20406;-83
2022/07/30 02:14:25;;;;;;;3.60;3.30;;;;;;;;;;5078170;28;20915;-82
2022/07/30 02:16:57;;;;;;;4.10;3.70;;;;;;;;;;5078077;28;20474;-83
2022/07/30 02:19:24;;;;;;;3.92;3.63;;;;;;;;;;5078197;28;20425;-83
2022/07/30 02:21:56;;;;;;;4.20;3.92;;;;;;;;;;5078028;28;20415;-82
2022/07/30 02:24:25;;;;;;;4.30;3.90;;;;;;;;;;5078357;28;20372;-82
2022/07/30 02:26:54;;;;;;;3.90;3.70;;;;;;;;;;5077934;28;20422;-81
2022/07/30 02:29:22;;;;;;;4.10;3.80;;;;;;;;;;5077235;28;20411;-82
2022/07/30 02:31:48;;;;;;;4.38;3.97;;;;;;;;;;5074304;28;20756;-83
2022/07/30 02:34:15;;;;;;;4.80;4.30;;;;;;;;;;5074962;28;20411;-83
2022/07/30 02:36:42;;;;;;;4.50;4.20;;;;;;;;;;5074607;28;20433;-83
2022/07/30 02:39:09;;;;;;;4.53;4.22;;;;;;;;;;5074589;28;20782;-83
2022/07/30 02:41:36;;;;;;;4.50;4.10;;;;;;;;;;5074868;28;20480;-82
2022/07/30 02:44:02;;;;;;;4.95;4.47;;;;;;;;;;5074608;28;20462;-82
2022/07/30 02:46:31;;;;;;;4.65;4.35;;;;;;;;;;5074465;28;20388;-82
2022/07/30 02:48:57;;;;;;;4.93;4.30;;;;;;;;;;5074665;28;20384;-83
2022/07/30 02:51:25;;;;;;;4.93;4.43;;;;;;;;;;5074491;28;20408;-82
2022/07/30 02:53:52;;;;;;;4.55;4.15;;;;;;;;;;5074473;28;20371;-82
2022/07/30 02:56:19;;;;;;;4.93;4.53;;;;;;;;;;5074258;28;20881;-82
2022/07/30 02:58:45;;;;;;;5.25;4.85;;;;;;;;;;5067752;28;20410;-83
2022/07/30 03:01:13;;;;;;;5.75;5.35;;;;;;;;;;5067364;28;20402;-82
2022/07/30 03:03:40;;;;;;;4.88;4.50;;;;;;;;;;5074313;28;20418;-82
2022/07/30 03:06:07;;;;;;;5.25;4.85;;;;;;;;;;5074201;28;20390;-82
2022/07/30 03:08:33;;;;;;;5.93;5.53;;;;;;;;;;5060256;28;20449;-83
2022/07/30 03:11:00;;;;;;;6.30;5.90;;;;;;;;;;5074425;28;20878;-83
2022/07/30 03:13:26;;;;;;;5.82;5.43;;;;;;;;;;5074149;28;20407;-83
2022/07/30 03:15:52;;;;;;;6.03;5.53;;;;;;;;;;5073909;28;20457;-82
2022/07/30 03:18:20;;;;;;;6.20;5.80;;;;;;;;;;5073974;28;20399;-82
2022/07/30 03:20:48;;;;;;;5.40;5.00;;;;;;;;;;5073656;28;20372;-83
2022/07/30 03:23:17;;;;;;;5.75;5.35;;;;;;;;;;5053931;28;20385;-82
2022/07/30 03:25:45;;;;;;;5.90;5.40;;;;;;;;;;5072631;28;20860;-83
2022/07/30 03:28:11;;;;;;;5.45;5.10;;;;;;;;;;5074263;28;20383;-82
2022/07/30 03:30:37;;;;;;;6.25;5.80;;;;;;;;;;5073813;28;20494;-83
2022/07/30 03:33:04;;;;;;;6.40;5.88;;;;;;;;;;5073994;28;20440;-82
2022/07/30 03:35:31;;;;;;;6.50;6.00;;;;;;;;;;5073696;28;20412;-82
2022/07/30 03:37:58;;;;;;;6.60;6.15;;;;;;;;;;5073585;28;20395;-82
2022/07/30 03:40:24;;;;;;;6.60;6.18;;;;;;;;;;5073749;28;20368;-82
2022/07/30 03:42:50;;;;;;;6.32;5.82;;;;;;;;;;5073325;28;20433;-82
2022/07/30 03:45:17;;;;;;;6.93;6.43;;;;;;;;;;5055680;28;20383;-82
2022/07/30 03:47:44;;;;;;;6.97;6.53;;;;;;;;;;5073382;28;20384;-83
2022/07/30 03:50:11;;;;;;;7.68;7.18;;;;;;;;;;5073426;28;20376;-82
2022/07/30 03:52:39;;;;;;;7.28;6.78;;;;;;;;;;5073342;28;20477;-83
2022/07/30 03:55:06;;;;;;;7.65;7.05;;;;;;;;;;5054502;28;20494;-82
2022/07/30 03:57:32;;;;;;;7.35;6.85;;;;;;;;;;5063882;28;20376;-82
2022/07/30 03:59:58;;;;;;;7.57;7.07;;;;;;;;;;5073088;28;20383;-82
2022/07/30 04:02:25;;;;;;;8.43;7.75;;;;;;;;;;5073150;28;20432;-83
2022/07/30 04:04:51;;;;;;;7.72;7.22;;;;;;;;;;5059005;28;20385;-82
2022/07/30 04:07:17;;;;;;;8.93;8.23;;;;;;;;;;5057790;28;20449;-82
2022/07/30 04:09:43;;;;;;;7.65;7.15;;;;;;;;;;5059907;28;20389;-82
2022/07/30 04:12:09;;;;;;;7.82;7.32;;;;;;;;;;5072080;28;20451;-82
2022/07/30 04:14:42;;;;;;;9.60;8.90;;;;;;;;;;5073145;28;20410;-82
2022/07/30 04:17:28;;;;;;;8.23;7.60;;;;;;;;;;5072632;28;20383;-83
2022/07/30 04:20:01;;;;;;;8.50;7.90;;;;;;;;;;5072656;28;20821;-82
2022/07/30 04:22:28;;;;;;;7.93;7.43;;;;;;;;;;5052862;28;20373;-83
2022/07/30 04:24:55;;;;;;;8.55;7.78;;;;;;;;;;5064778;28;20375;-83
2022/07/30 04:27:21;;;;;;;8.55;7.75;;;;;;;;;;5068411;28;20378;-83
2022/07/30 04:29:47;;;;;;;6.90;6.50;;;;;;;;;;5071616;28;20920;-83
2022/07/30 04:32:13;;;;;;;7.13;6.53;;;;;;;;;;5058615;28;20421;-82
2022/07/30 04:34:49;;;;;;;6.70;6.30;;;;;;;;;;5072518;28;20400;-82
2022/07/30 04:37:19;;;;;;;6.47;6.07;;;;;;;;;;5072053;28;20408;-82
2022/07/30 04:39:48;;;;;;;6.65;6.15;;;;;;;;;;5072549;28;20388;-83
2022/07/30 04:42:14;;;;;;;7.30;6.80;;;;;;;;;;5072557;28;20380;-82
2022/07/30 04:44:41;;;;;;;8.10;7.50;;;;;;;;;;5072521;28;20411;-82
2022/07/30 04:47:07;;;;;;;7.82;7.22;;;;;;;;;;5072354;28;20403;-82
2022/07/30 04:49:34;;;;;;;6.95;6.43;;;;;;;;;;5072428;28;20379;-82
2022/07/30 04:52:02;;;;;;;7.03;6.43;;;;;;;;;;5072602;28;20450;-83
2022/07/30 04:54:33;;;;;;;7.13;6.63;;;;;;;;;;5054213;28;20770;-82
2022/07/30 04:56:59;;;;;;;7.30;6.80;;;;;;;;;;5051244;28;20925;-83
2022/07/30 04:59:25;;;;;;;6.60;6.00;;;;;;;;;;5051741;28;20503;-83
2022/07/30 05:01:52;;;;;;;6.82;6.32;;;;;;;;;;5051580;28;20388;-83
2022/07/30 05:04:19;;;;;;;7.25;6.65;;;;;;;;;;5053461;28;20379;-84
2022/07/30 05:06:45;;;;;;;6.80;6.40;;;;;;;;;;5055043;28;20389;-83
2022/07/30 05:09:11;;;;;;;7.72;7.13;;;;;;;;;;5052784;28;20762;-83
2022/07/30 05:11:37;;;;;;;7.40;6.90;;;;;;;;;;5065706;28;20888;-83
2022/07/30 05:14:03;;;;;;;7.53;7.03;;;;;;;;;;5053391;28;20448;-84
2022/07/30 05:16:29;;;;;;;7.72;7.22;;;;;;;;;;5064033;28;20410;-83
2022/07/30 05:18:55;;;;;;;7.53;7.00;;;;;;;;;;5067419;28;20822;-83
2022/07/30 05:21:21;;;;;;;7.50;6.90;;;;;;;;;;5062547;28;20932;-83
2022/07/30 05:23:47;;;;;;;7.57;7.07;;;;;;;;;;5071954;28;20380;-83
2022/07/30 05:26:13;;;;;;;7.28;6.68;;;;;;;;;;5062851;28;20388;-83
2022/07/30 05:28:39;;;;;;;7.57;7.05;;;;;;;;;;5066904;28;20383;-84
2022/07/30 05:31:05;;;;;;;7.43;6.93;;;;;;;;;;5071951;28;20447;-84
2022/07/30 05:33:31;;;;;;;7.35;6.85;;;;;;;;;;5062380;28;20470;-83
2022/07/30 05:35:59;;;;;;;8.80;8.10;;;;;;;;;;5070742;28;20422;-83
2022/07/30 05:38:25;;;;;;;8.43;7.72;;;;;;;;;;5069679;28;20380;-83
2022/07/30 05:40:51;;;;;;;8.27;7.65;;;;;;;;;;5056644;28;20529;-83
2022/07/30 05:43:17;;;;;;;7.72;7.18;;;;;;;;;;5070605;28;20513;-82
2022/07/30 05:45:43;;;;;;;7.57;6.97;;;;;;;;;;5066843;28;20396;-83
2022/07/30 05:48:09;;;;;;;9.32;8.63;;;;;;;;;;5069028;28;20394;-83
2022/07/30 05:50:35;;;;;;;8.77;8.10;;;;;;;;;;5062220;28;20930;-82
2022/07/30 05:53:01;;;;;;;9.13;8.40;;;;;;;;;;5062051;28;20393;-83
2022/07/30 05:55:27;;;;;;;8.88;8.20;;;;;;;;;;5065650;28;20766;-83
2022/07/30 05:57:53;;;;;;;9.50;8.70;;;;;;;;;;5065280;28;20372;-84
2022/07/30 06:00:19;;;;;;;8.43;7.82;;;;;;;;;;5071622;28;20378;-84
2022/07/30 06:02:45;;;;;;;9.30;8.60;;;;;;;;;;5071628;28;20367;-85
2022/07/30 06:05:11;;;;;;;9.77;9.07;;;;;;;;;;5072178;28;20384;-84
2022/07/30 06:07:37;;;;;;;9.35;8.65;;;;;;;;;;5068656;28;20378;-84
2022/07/30 06:10:04;;;;;;;9.52;8.80;;;;;;;;;;5055614;28;20388;-86
2022/07/30 06:12:30;;;;;;;9.07;8.32;;;;;;;;;;5050196;28;20440;-84
2022/07/30 06:14:57;;;;;;;8.95;8.25;;;;;;;;;;5054323;28;20417;-84
2022/07/30 06:17:23;;;;;;;8.63;7.82;;;;;;;;;;5074664;28;20473;-84
2022/07/30 06:19:49;;;;;;;7.93;7.22;;;;;;;;;;5074271;28;20375;-84
2022/07/30 06:22:16;;;;;;;7.22;6.65;;;;;;;;;;5074300;28;20376;-83
2022/07/30 06:24:42;;;;;;;7.30;6.80;;;;;;;;;;5074523;28;20553;-84
2022/07/30 06:27:08;;;;;;;7.38;6.80;;;;;;;;;;5074847;28;20415;-84
2022/07/30 06:29:35;;;;;;;7.68;7.07;;;;;;;;;;5074955;28;20390;-83
2022/07/30 06:32:01;;;;;;;7.57;6.97;;;;;;;;;;5074925;28;20388;-83
2022/07/30 06:34:27;;;;;;;7.03;6.47;;;;;;;;;;5074937;28;20831;-84
2022/07/30 06:36:53;;;;;;;5.57;5.18;;;;;;;;;;5074708;28;20491;-84
2022/07/30 06:39:20;;;;;;;6.05;5.55;;;;;;;;;;5074314;28;20440;-83
2022/07/30 06:41:47;;;;;;;6.07;5.47;;;;;;;;;;5074665;28;20386;-84
2022/07/30 06:44:13;;;;;;;6.15;5.55;;;;;;;;;;5074809;28;20458;-84
2022/07/30 06:46:39;;;;;;;5.50;5.10;;;;;;;;;;5074490;28;20455;-83
2022/07/30 06:49:05;;;;;;;5.20;4.80;;;;;;;;;;5074675;28;20841;-84
2022/07/30 06:51:31;;;;;;;5.40;5.00;;;;;;;;;;5073971;28;20375;-82
2022/07/30 06:53:57;;;;;;;5.30;4.90;;;;;;;;;;5074601;28;20422;-82
2022/07/30 06:56:23;;;;;;;5.10;4.63;;;;;;;;;;5074366;28;20394;-82
2022/07/30 06:58:49;;;;;;;4.90;4.50;;;;;;;;;;5074487;28;20849;-80
2022/07/30 07:01:15;;;;;;;4.90;4.60;;;;;;;;;;5054564;28;20445;-79
2022/07/30 07:03:41;;;;;;;5.00;4.60;;;;;;;;;;5059184;28;20372;-80
2022/07/30 07:06:07;;;;;;;5.07;4.68;;;;;;;;;;5070972;28;20397;-80
2022/07/30 07:08:35;;;;;;;5.03;4.72;;;;;;;;;;5071852;28;20372;-82
2022/07/30 07:11:01;;;;;;;5.43;4.43;;;;;;;;;;5058802;28;20393;-81
2022/07/30 07:13:27;;;;;;;4.90;4.50;;;;;;;;;;5063098;28;20387;-81
2022/07/30 07:15:54;;;;;;;5.30;4.40;;;;;;;;;;5072354;28;20407;-83
2022/07/30 07:18:20;;;;;;;5.30;4.68;;;;;;;;;;5066752;28;20366;-81
2022/07/30 07:20:46;;;;;;;5.15;4.75;;;;;;;;;;5060020;28;20445;-83
2022/07/30 07:23:12;;;;;;;5.05;4.38;;;;;;;;;;5074044;28;20868;-82
2022/07/30 07:25:38;;;;;;;4.77;4.43;;;;;;;;;;5073760;28;20388;-80
2022/07/30 07:28:05;;;;;;;4.53;4.13;;;;;;;;;;5073895;28;20387;-82
2022/07/30 07:30:31;;;;;;;5.13;4.72;;;;;;;;;;5073789;28;20376;-83
2022/07/30 07:32:57;;;;;;;4.68;4.28;;;;;;;;;;5073864;28;20391;-82
2022/07/30 07:35:23;;;;;;;5.47;4.55;;;;;;;;;;5073623;28;20407;-82
2022/07/30 07:37:49;;;;;;;4.30;3.90;;;;;;;;;;5073547;28;20474;-82
2022/07/30 07:40:15;;;;;;;5.60;5.10;;;;;;;;;;5069281;28;20463;-80
2022/07/30 07:42:41;;;;;;;5.55;4.57;;;;;;;;;;5053799;28;20369;-81
2022/07/30 07:45:07;;;;;;;4.68;4.28;;;;;;;;;;5073574;28;20406;-80
2022/07/30 07:47:43;;;;;;;5.18;4.68;;;;;;;;;;5073443;28;20382;-81
2022/07/30 07:50:10;;;;;;;5.78;4.70;;;;;;;;;;5073739;28;20433;-81
2022/07/30 07:52:35;;;;;;;5.82;4.00;;;;;;;;;;5073439;28;20467;-80
2022/07/30 07:55:01;;;;;;;7.07;5.80;;;;;;;;;;5073279;28;20498;-81
2022/07/30 07:57:28;;;;;;;8.70;7.20;;;;;;;;;;5073319;28;20387;-81
2022/07/30 07:59:54;;;;;;;6.30;5.10;;;;;;;;;;5073191;28;20376;-81
2022/07/30 08:02:20;;;;;;;4.38;3.97;;;;;;;;;;5073198;28;20404;-81
2022/07/30 08:04:46;;;;;;;4.20;3.80;;;;;;;;;;5073147;28;20480;-81
2022/07/30 08:07:12;;;;;;;5.80;3.70;;;;;;;;;;5073009;28;20932;-81
2022/07/30 08:09:38;;;;;;;3.35;3.00;;;;;;;;;;5073208;28;20380;-81
2022/07/30 08:12:04;;;;;;;3.65;2.88;;;;;;;;;;5055831;28;20926;-81
2022/07/30 08:14:30;;;;;;;2.88;2.60;;;;;;;;;;5072945;28;20486;-81
2022/07/30 08:16:56;;;;;;;3.13;2.83;;;;;;;;;;5072819;28;21092;-81
2022/07/30 08:19:22;;;;;;;3.75;2.85;;;;;;;;;;5072969;28;20424;-81
2022/07/30 08:21:48;;;;;;;3.70;2.80;;;;;;;;;;5072881;28;20372;-81
2022/07/30 08:24:14;;;;;;;3.28;2.70;;;;;;;;;;5072869;28;20376;-81
2022/07/30 08:26:40;;;;;;;3.77;2.63;;;;;;;;;;5073052;28;20467;-81
2022/07/30 08:29:06;;;;;;;3.28;2.90;;;;;;;;;;5071823;28;20384;-81
2022/07/30 08:31:32;;;;;;;4.88;2.90;;;;;;;;;;5072778;28;20783;-81
2022/07/30 08:33:58;;;;;;;3.22;2.90;;;;;;;;;;5072539;28;20379;-81
2022/07/30 08:36:24;;;;;;;4.78;2.55;;;;;;;;;;5072410;28;20388;-82
2022/07/30 08:38:50;;;;;;;2.80;2.60;;;;;;;;;;5072574;28;20857;-81
2022/07/30 08:41:18;;;;;;;2.87;2.47;;;;;;;;;;5072592;28;20379;-81
2022/07/30 08:43:46;;;;;;;2.75;2.30;;;;;;;;;;5072522;28;20411;-81
2022/07/30 08:46:13;;;;;;;3.90;2.50;;;;;;;;;;5072318;28;20518;-81
2022/07/30 08:48:40;;;;;;;3.60;2.60;;;;;;;;;;5064934;28;20470;-81
2022/07/30 08:51:07;;;;;;;4.45;2.72;;;;;;;;;;5052487;28;20400;-81
2022/07/30 08:53:34;;;;;;;3.10;2.23;;;;;;;;;;5058405;28;20466;-81
2022/07/30 08:56:00;;;;;;;3.08;2.25;;;;;;;;;;5072301;28;20403;-81
2022/07/30 08:58:28;;;;;;;2.35;2.00;;;;;;;;;;5072394;28;20425;-81
2022/07/30 09:00:55;;;;;;;3.03;2.50;;;;;;;;;;5072406;28;20458;-81
2022/07/30 09:03:21;;;;;;;2.78;2.40;;;;;;;;;;5072366;28;20454;-81
2022/07/30 09:05:47;;;;;;;3.92;2.30;;;;;;;;;;5072480;28;20482;-82
2022/07/30 09:08:13;;;;;;;3.30;2.45;;;;;;;;;;5071087;28;20790;-81
2022/07/30 09:10:40;;;;;;;3.53;2.47;;;;;;;;;;5072308;28;20414;-81
2022/07/30 09:13:21;;;;;;;2.37;1.77;;;;;;;;;;5072337;28;20441;-81
2022/07/30 09:15:47;;;;;;;3.88;1.80;;;;;;;;;;5072066;28;20446;-81
2022/07/30 09:18:13;;;;;;;3.05;1.70;;;;;;;;;;5068360;28;20389;-81
2022/07/30 09:20:39;;;;;;;2.85;1.85;;;;;;;;;;5071231;28;20459;-81
2022/07/30 09:23:06;;;;;;;2.65;1.90;;;;;;;;;;5072202;28;20374;-81
2022/07/30 09:25:36;;;;;;;2.73;1.80;;;;;;;;;;5072097;28;20447;-81
2022/07/30 09:28:02;;;;;;;3.35;1.80;;;;;;;;;;5072019;28;20380;-81
2022/07/30 09:30:44;;;;;;;2.15;1.80;;;;;;;;;;5056086;28;20439;-81
2022/07/30 09:33:10;;;;;;;2.40;1.80;;;;;;;;;;5062097;28;20374;-81
2022/07/30 09:35:37;;;;;;;2.55;1.73;;;;;;;;;;5068925;28;20988;-82
2022/07/30 09:38:03;;;;;;;2.97;2.00;;;;;;;;;;5048329;28;20487;-81
2022/07/30 09:40:30;;;;;;;2.75;2.00;;;;;;;;;;5074854;28;20860;-81
2022/07/30 09:43:03;;;;;;;2.70;2.20;;;;;;;;;;5075955;28;20424;-81
2022/07/30 09:45:29;;;;;;;2.40;2.20;;;;;;;;;;5075848;28;20868;-81
2022/07/30 09:47:55;;;;;;;2.25;2.08;;;;;;;;;;5075691;28;20394;-81
2022/07/30 09:50:23;;;;;;;2.63;2.00;;;;;;;;;;5075875;28;20395;-82
2022/07/30 09:52:50;;;;;;;5.05;2.22;;;;;;;;;;5075814;28;20387;-81
2022/07/30 09:55:29;;;;;;;3.80;2.20;;;;;;;;;;5069598;28;20397;-81
2022/07/30 09:57:56;;;;;;;4.38;2.00;;;;;;;;;;5055847;28;20409;-81
2022/07/30 10:00:23;;;;;;;3.10;1.98;;;;;;;;;;5061760;28;20368;-81
2022/07/30 10:02:50;;;;;;;2.78;2.13;;;;;;;;;;5075884;28;20383;-81
2022/07/30 10:05:18;;;;;;;3.00;2.10;;;;;;;;;;5075478;28;20457;-81
2022/07/30 10:08:02;;;;;;;4.30;2.30;;;;;;;;;;5069634;28;20732;-81
2022/07/30 10:10:29;;;;;;;3.22;2.08;;;;;;;;;;5073880;28;20718;-81
2022/07/30 10:13:02;;;;;;;2.92;2.10;;;;;;;;;;5075458;28;20387;-81
2022/07/30 10:15:32;;;;;;;3.20;2.58;;;;;;;;;;5075183;28;20464;-81
2022/07/30 10:17:59;;;;;;;2.67;2.13;;;;;;;;;;5075359;28;20375;-81
2022/07/30 10:20:26;;;;;;;2.93;1.80;;;;;;;;;;5061198;28;20372;-81
2022/07/30 10:22:52;;;;;;;2.55;2.08;;;;;;;;;;5075325;28;20375;-81
2022/07/30 10:25:19;;;;;;;2.60;1.90;;;;;;;;;;5075228;28;20379;-81
2022/07/30 10:27:45;;;;;;;2.35;1.83;;;;;;;;;;5074997;28;20931;-81
2022/07/30 10:30:11;;;;;;;3.45;2.60;;;;;;;;;;5075080;28;20388;-81
2022/07/30 10:32:37;;;;;;;3.17;1.70;;;;;;;;;;5060896;28;20408;-81
2022/07/30 10:35:04;;;;;;;2.03;1.83;;;;;;;;;;5075060;28;20454;-82
2022/07/30 10:37:34;;;;;;;5.50;3.10;;;;;;;;;;5074700;28;20391;-82
2022/07/30 10:40:20;;;;;;;2.25;1.90;;;;;;;;;;5074898;28;20368;-81
2022/07/30 10:43:11;;;;;;;2.22;1.90;;;;;;;;;;5074603;28;20380;-81
2022/07/30 10:45:37;;;;;;;2.80;1.65;;;;;;;;;;5064026;28;20390;-82
2022/07/30 10:48:04;;;;;;;1.50;1.40;;;;;;;;;;5071546;28;21915;-81
2022/07/30 10:50:30;;;;;;;3.60;1.40;;;;;;;;;;5074468;28;20376;-82
2022/07/30 10:53:02;;;;;;;1.70;1.40;;;;;;;;;;5074272;28;20392;-81
2022/07/30 10:55:29;;;;;;;1.98;1.60;;;;;;;;;;5074585;28;20484;-82
2022/07/30 10:58:00;;;;;;;1.80;1.60;;;;;;;;;;5074621;28;20375;-81
2022/07/30 11:00:27;;;;;;;2.80;1.35;;;;;;;;;;5074661;28;20379;-81
2022/07/30 11:03:11;;;;;;;2.45;1.30;;;;;;;;;;5074584;28;20372;-81
2022/07/30 11:05:37;;;;;;;2.03;1.50;;;;;;;;;;5074957;28;20390;-81
2022/07/30 11:08:22;;;;;;;1.75;1.48;;;;;;;;;;5074667;28;20415;-81
2022/07/30 11:10:48;;;;;;;1.93;1.57;;;;;;;;;;5074413;28;20463;-81
2022/07/30 11:13:14;;;;;;;2.00;1.60;;;;;;;;;;5074540;28;20375;-82
2022/07/30 11:15:53;;;;;;;3.65;1.60;;;;;;;;;;5074120;28;20417;-81
2022/07/30 11:18:19;;;;;;;2.20;1.40;;;;;;;;;;5074277;28;20379;-81
2022/07/30 11:21:04;;;;;;;1.50;1.40;;;;;;;;;;5074182;28;20399;-81
2022/07/30 11:23:37;;;;;;;1.58;1.40;;;;;;;;;;5074086;28;20454;-81
2022/07/30 11:26:04;;;;;;;1.92;1.35;;;;;;;;;;5073989;28;20740;-81
2022/07/30 11:28:38;;;;;;;1.65;1.30;;;;;;;;;;5064125;28;20380;-81
2022/07/30 11:31:24;;;;;;;1.63;1.42;;;;;;;;;;5049914;28;20395;-82
2022/07/30 11:33:50;;;;;;;2.13;1.57;;;;;;;;;;5073943;28;20375;-82
2022/07/30 11:36:16;;;;;;;2.53;1.20;;;;;;;;;;5073618;28;20479;-82
2022/07/30 11:38:55;;;;;;;2.63;1.25;;;;;;;;;;5073845;28;20375;-82
2022/07/30 11:41:21;;;;;;;2.33;1.10;;;;;;;;;;5073969;28;20372;-82
2022/07/30 11:43:47;;;;;;;2.05;1.30;;;;;;;;;;5073884;28;20379;-82
2022/07/30 11:46:16;;;;;;;2.72;1.15;;;;;;;;;;5061558;28;20754;-81
2022/07/30 11:48:56;;;;;;;1.30;1.20;;;;;;;;;;5059265;28;20780;-82
2022/07/30 11:51:22;;;;;;;3.08;1.23;;;;;;;;;;5054604;28;20511;-82
2022/07/30 11:54:05;;;;;;;2.25;1.40;;;;;;;;;;5051850;28;20409;-82
2022/07/30 11:56:31;;;;;;;2.22;1.17;;;;;;;;;;5069752;28;20395;-82
2022/07/30 11:59:04;;;;;;;3.43;1.23;;;;;;;;;;5073461;28;20473;-82
2022/07/30 12:01:32;;;;;;;1.95;1.25;;;;;;;;;;5049053;28;20771;-82
2022/07/30 12:04:01;;;;;;;3.67;1.35;;;;;;;;;;5073229;28;20461;-81
2022/07/30 12:06:27;;;;;;;1.97;1.37;;;;;;;;;;5058872;28;20450;-81
2022/07/30 12:08:53;;;;;;;4.03;2.00;;;;;;;;;;5073318;28;20421;-82
2022/07/30 12:11:19;;;;;;;2.80;2.00;;;;;;;;;;5073307;28;20455;-81
2022/07/30 12:13:55;;;;;;;4.18;1.70;;;;;;;;;;5072967;28;20368;-81
2022/07/30 12:16:21;;;;;;;2.43;1.40;;;;;;;;;;5073033;28;20476;-81
2022/07/30 12:18:47;;;;;;;3.87;1.90;;;;;;;;;;5069324;28;20457;-81
2022/07/30 12:21:16;;;;;;;3.65;2.40;;;;;;;;;;5052635;28;20374;-81
2022/07/30 12:23:45;;;;;;;4.40;3.47;;;;;;;;;;5052809;28;20397;-81
2022/07/30 12:26:24;;;;;;;12.38;7.95;;;;;;;;;;5052672;28;20773;-81
2022/07/30 12:28:50;;;;;;;7.00;5.40;;;;;;;;;;5068786;28;20389;-81
2022/07/30 12:31:17;;;;;;;3.55;2.35;;;;;;;;;;5072906;28;20466;-81
2022/07/30 12:33:43;;;;;;;5.60;2.03;;;;;;;;;;5066932;28;20480;-81
2022/07/30 12:36:09;;;;;;;1.52;1.40;;;;;;;;;;5072385;28;20506;-80
2022/07/30 12:38:44;;;;;;;3.67;2.47;;;;;;;;;;5072405;28;20375;-83
2022/07/30 12:41:10;;;;;;;4.20;2.33;;;;;;;;;;5072490;28;20375;-82
2022/07/30 12:43:53;;;;;;;4.47;1.50;;;;;;;;;;5072848;28;20398;-82
2022/07/30 12:46:20;;;;;;;2.38;1.50;;;;;;;;;;5072329;28;20926;-80
2022/07/30 12:48:50;;;;;;;2.08;1.58;;;;;;;;;;5072672;28;20379;-81
2022/07/30 12:51:16;;;;;;;2.28;1.30;;;;;;;;;;5071824;28;20392;-83
2022/07/30 12:53:42;;;;;;;3.92;2.58;;;;;;;;;;5072652;28;20463;-80
2022/07/30 12:56:13;;;;;;;3.88;2.38;;;;;;;;;;5072198;28;20490;-79
2022/07/30 12:58:39;;;;;;;3.90;2.65;;;;;;;;;;5072248;28;20375;-80
2022/07/30 13:01:06;;;;;;;5.72;4.10;;;;;;;;;;5072433;28;20387;-79
2022/07/30 13:03:41;;;;;;;3.25;2.03;;;;;;;;;;5072352;28;20380;-80
2022/07/30 13:06:14;;;;;;;2.60;2.10;;;;;;;;;;5072482;28;20372;-80
2022/07/30 13:08:56;;;;;;;8.35;5.45;;;;;;;;;;5071742;28;20399;-83
2022/07/30 13:11:42;;;;;;;6.53;3.92;;;;;;;;;;5072535;28;20372;-80
2022/07/30 13:14:11;;;;;;;7.85;4.40;;;;;;;;;;5071384;28;20380;-82
2022/07/30 13:16:37;;;;;;;4.75;2.38;;;;;;;;;;5071938;28;20856;-80
2022/07/30 13:19:03;;;;;;;3.25;2.17;;;;;;;;;;5066176;28;20374;-80
2022/07/30 13:21:29;;;;;;;2.70;1.50;;;;;;;;;;5064092;28;20383;-81
2022/07/30 13:23:55;;;;;;;1.73;1.50;;;;;;;;;;5072203;28;20837;-80
2022/07/30 13:26:21;;;;;;;3.27;2.10;;;;;;;;;;5072011;28;20383;-79
2022/07/30 13:28:48;;;;;;;2.92;2.30;;;;;;;;;;5071877;28;20727;-82
2022/07/30 13:31:14;;;;;;;3.38;1.90;;;;;;;;;;5063721;28;20396;-84
2022/07/30 13:33:40;;;;;;;3.40;2.08;;;;;;;;;;5055782;28;20397;-80
2022/07/30 13:36:06;;;;;;;3.20;1.80;;;;;;;;;;5053221;28;20406;-81
2022/07/30 13:38:32;;;;;;;3.17;1.87;;;;;;;;;;5066691;28;20856;-79
2022/07/30 13:40:59;;;;;;;3.13;1.33;;;;;;;;;;5059626;28;20372;-80
2022/07/30 13:43:25;;;;;;;2.88;1.60;;;;;;;;;;5071774;28;20368;-79
2022/07/30 13:45:51;;;;;;;1.83;1.58;;;;;;;;;;5071771;28;20379;-80
2022/07/30 13:48:18;;;;;;;2.40;1.45;;;;;;;;;;5069178;28;20383;-80
2022/07/30 13:50:44;;;;;;;1.55;1.20;;;;;;;;;;5052035;28;20533;-80
2022/07/30 13:53:10;;;;;;;2.13;1.30;;;;;;;;;;5052264;28;20393;-80
2022/07/30 13:55:37;;;;;;;1.30;1.20;;;;;;;;;;5057219;28;20473;-81
2022/07/30 13:58:05;;;;;;;1.50;1.30;;;;;;;;;;5053170;28;20885;-80
2022/07/30 14:00:31;;;;;;;2.17;1.30;;;;;;;;;;5052219;28;20389;-80
2022/07/30 14:02:58;;;;;;;3.45;1.60;;;;;;;;;;5064649;28;20382;-80
2022/07/30 14:05:25;;;;;;;2.10;1.48;;;;;;;;;;5071695;28;20376;-80
2022/07/30 14:07:51;;;;;;;2.05;1.48;;;;;;;;;;5071556;28;20384;-80
2022/07/30 14:10:17;;;;;;;2.33;1.60;;;;;;;;;;5042831;28;20444;-79
2022/07/30 14:12:43;;;;;;;2.10;1.30;;;;;;;;;;5071631;28;20387;-80
2022/07/30 14:15:09;;;;;;;1.33;1.20;;;;;;;;;;5070828;28;20400;-80
2022/07/30 14:17:35;;;;;;;1.88;1.35;;;;;;;;;;5051401;28;20386;-80
2022/07/30 14:20:01;;;;;;;2.00;1.40;;;;;;;;;;5052197;28;20413;-80
2022/07/30 14:22:27;;;;;;;1.40;1.30;;;;;;;;;;5054351;28;20419;-79
2022/07/30 14:24:53;;;;;;;1.93;1.43;;;;;;;;;;5050936;28;20392;-82
2022/07/30 14:27:20;;;;;;;1.48;1.38;;;;;;;;;;5056643;28;20379;-82
2022/07/30 14:29:46;;;;;;;2.00;1.30;;;;;;;;;;5075432;28;20379;-82
2022/07/30 14:32:12;;;;;;;1.77;1.20;;;;;;;;;;5066927;28;20385;-82
2022/07/30 14:34:38;;;;;;;2.10;1.48;;;;;;;;;;5054090;28;20405;-82
2022/07/30 14:37:04;;;;;;;2.55;1.77;;;;;;;;;;5056523;28;20515;-81
2022/07/30 14:39:30;;;;;;;4.13;1.20;;;;;;;;;;5056284;28;20373;-81
2022/07/30 14:41:56;;;;;;;3.10;1.30;;;;;;;;;;5054141;28;20617;-81
2022/07/30 14:44:23;;;;;;;2.53;1.20;;;;;;;;;;5059652;28;20408;-81
2022/07/30 14:46:49;;;;;;;1.52;1.30;;;;;;;;;;5074825;28;20458;-80
2022/07/30 14:49:15;;;;;;;2.60;1.30;;;;;;;;;;5057039;28;20386;-81